sensor_id;sensor_type;location;lat;lon;timestamp;P1;durP1;ratioP1;P2;durP2;ratioP2
61336;SDS011;47212;41.326;2.104;2022-07-06T00:03:55;7.82;;;2.85;;
61336;SDS011;47212;41.326;2.104;2022-07-06T00:08:58;5.35;;;2.55;;
61336;SDS011;47212;41.326;2.104;2022-07-06T00:14:04;9.77;;;2.67;;
61336;SDS011;47212;41.326;2.104;2022-07-06T00:19:09;7.07;;;4.97;;
61336;SDS011;47212;41.326;2.104;2022-07-06T00:24:11;7.40;;;3.80;;
61336;SDS011;47212;41.326;2.104;2022-07-06T00:29:13;4.82;;;2.90;;
61336;SDS011;47212;41.326;2.104;2022-07-06T00:34:15;8.00;;;3.10;;
61336;SDS011;47212;41.326;2.104;2022-07-06T00:39:18;5.32;;;2.45;;
61336;SDS011;47212;41.326;2.104;2022-07-06T00:44:21;6.50;;;4.03;;
61336;SDS011;47212;41.326;2.104;2022-07-06T00:49:23;5.97;;;2.70;;
61336;SDS011;47212;41.326;2.104;2022-07-06T00:59:53;8.98;;;3.00;;
61336;SDS011;47212;41.326;2.104;2022-07-06T01:05:29;6.20;;;2.60;;
61336;SDS011;47212;41.326;2.104;2022-07-06T01:10:31;6.10;;;2.75;;
61336;SDS011;47212;41.326;2.104;2022-07-06T01:15:33;7.55;;;2.42;;
61336;SDS011;47212;41.326;2.104;2022-07-06T01:20:36;8.00;;;3.03;;
61336;SDS011;47212;41.326;2.104;2022-07-06T01:25:38;5.78;;;2.75;;
61336;SDS011;47212;41.326;2.104;2022-07-06T01:30:40;9.32;;;2.53;;
61336;SDS011;47212;41.326;2.104;2022-07-06T01:35:43;7.18;;;3.00;;
61336;SDS011;47212;41.326;2.104;2022-07-06T01:40:46;13.13;;;3.28;;
61336;SDS011;47212;41.326;2.104;2022-07-06T01:45:48;9.82;;;3.22;;
61336;SDS011;47212;41.326;2.104;2022-07-06T01:50:51;6.30;;;3.35;;
61336;SDS011;47212;41.326;2.104;2022-07-06T01:55:53;7.88;;;3.53;;
61336;SDS011;47212;41.326;2.104;2022-07-06T02:00:55;10.45;;;4.43;;
61336;SDS011;47212;41.326;2.104;2022-07-06T02:05:57;13.18;;;4.63;;
61336;SDS011;47212;41.326;2.104;2022-07-06T02:11:01;12.43;;;4.65;;
61336;SDS011;47212;41.326;2.104;2022-07-06T02:16:08;10.32;;;4.43;;
61336;SDS011;47212;41.326;2.104;2022-07-06T02:21:11;19.85;;;4.78;;
61336;SDS011;47212;41.326;2.104;2022-07-06T02:26:20;10.93;;;5.18;;
61336;SDS011;47212;41.326;2.104;2022-07-06T02:31:23;14.18;;;4.07;;
61336;SDS011;47212;41.326;2.104;2022-07-06T02:36:26;13.10;;;4.72;;
61336;SDS011;47212;41.326;2.104;2022-07-06T02:41:28;13.57;;;4.10;;
61336;SDS011;47212;41.326;2.104;2022-07-06T02:46:30;8.55;;;3.83;;
61336;SDS011;47212;41.326;2.104;2022-07-06T02:51:33;9.95;;;3.60;;
61336;SDS011;47212;41.326;2.104;2022-07-06T02:56:35;7.65;;;3.40;;
61336;SDS011;47212;41.326;2.104;2022-07-06T03:01:39;9.57;;;3.67;;
61336;SDS011;47212;41.326;2.104;2022-07-06T03:06:46;7.07;;;2.95;;
61336;SDS011;47212;41.326;2.104;2022-07-06T03:11:54;9.88;;;3.42;;
61336;SDS011;47212;41.326;2.104;2022-07-06T03:17:00;9.23;;;3.53;;
61336;SDS011;47212;41.326;2.104;2022-07-06T03:22:05;4.72;;;3.00;;
61336;SDS011;47212;41.326;2.104;2022-07-06T03:27:08;5.22;;;2.72;;
61336;SDS011;47212;41.326;2.104;2022-07-06T03:32:17;7.38;;;2.95;;
61336;SDS011;47212;41.326;2.104;2022-07-06T03:37:20;9.85;;;3.55;;
61336;SDS011;47212;41.326;2.104;2022-07-06T03:42:30;6.35;;;2.80;;
61336;SDS011;47212;41.326;2.104;2022-07-06T03:47:34;7.38;;;3.50;;
61336;SDS011;47212;41.326;2.104;2022-07-06T03:52:38;8.45;;;4.05;;
61336;SDS011;47212;41.326;2.104;2022-07-06T03:57:45;7.97;;;3.20;;
61336;SDS011;47212;41.326;2.104;2022-07-06T04:02:58;7.93;;;3.17;;
61336;SDS011;47212;41.326;2.104;2022-07-06T04:08:15;11.50;;;3.35;;
61336;SDS011;47212;41.326;2.104;2022-07-06T04:13:47;9.38;;;3.53;;
61336;SDS011;47212;41.326;2.104;2022-07-06T04:18:53;9.15;;;3.20;;
61336;SDS011;47212;41.326;2.104;2022-07-06T04:24:00;8.23;;;2.60;;
61336;SDS011;47212;41.326;2.104;2022-07-06T04:29:09;5.13;;;2.40;;
61336;SDS011;47212;41.326;2.104;2022-07-06T04:34:15;7.15;;;2.65;;
61336;SDS011;47212;41.326;2.104;2022-07-06T04:39:22;7.35;;;3.20;;
61336;SDS011;47212;41.326;2.104;2022-07-06T04:44:25;8.90;;;2.83;;
61336;SDS011;47212;41.326;2.104;2022-07-06T04:49:55;7.43;;;3.00;;
61336;SDS011;47212;41.326;2.104;2022-07-06T04:54:58;10.38;;;3.40;;
61336;SDS011;47212;41.326;2.104;2022-07-06T05:00:01;8.95;;;4.13;;
61336;SDS011;47212;41.326;2.104;2022-07-06T05:05:11;7.28;;;3.75;;
61336;SDS011;47212;41.326;2.104;2022-07-06T05:10:17;9.93;;;3.95;;
61336;SDS011;47212;41.326;2.104;2022-07-06T05:15:31;11.10;;;3.70;;
61336;SDS011;47212;41.326;2.104;2022-07-06T05:20:42;14.90;;;5.13;;
61336;SDS011;47212;41.326;2.104;2022-07-06T05:25:49;9.85;;;5.03;;
61336;SDS011;47212;41.326;2.104;2022-07-06T05:30:54;11.02;;;4.78;;
61336;SDS011;47212;41.326;2.104;2022-07-06T05:36:06;8.30;;;3.92;;
61336;SDS011;47212;41.326;2.104;2022-07-06T05:41:13;15.70;;;6.80;;
61336;SDS011;47212;41.326;2.104;2022-07-06T05:46:23;8.95;;;5.05;;
61336;SDS011;47212;41.326;2.104;2022-07-06T05:51:34;13.30;;;4.75;;
61336;SDS011;47212;41.326;2.104;2022-07-06T05:56:37;9.70;;;4.25;;
61336;SDS011;47212;41.326;2.104;2022-07-06T06:01:46;12.48;;;4.65;;
61336;SDS011;47212;41.326;2.104;2022-07-06T06:06:58;10.38;;;4.20;;
61336;SDS011;47212;41.326;2.104;2022-07-06T06:12:03;5.40;;;3.22;;
61336;SDS011;47212;41.326;2.104;2022-07-06T06:17:07;6.85;;;3.58;;
61336;SDS011;47212;41.326;2.104;2022-07-06T06:22:13;9.38;;;3.90;;
61336;SDS011;47212;41.326;2.104;2022-07-06T06:27:26;6.32;;;3.15;;
61336;SDS011;47212;41.326;2.104;2022-07-06T06:32:29;10.63;;;3.58;;
61336;SDS011;47212;41.326;2.104;2022-07-06T06:37:35;9.60;;;4.65;;
61336;SDS011;47212;41.326;2.104;2022-07-06T06:42:39;6.32;;;4.28;;
61336;SDS011;47212;41.326;2.104;2022-07-06T06:47:49;8.73;;;4.53;;
61336;SDS011;47212;41.326;2.104;2022-07-06T06:52:54;5.95;;;4.50;;
61336;SDS011;47212;41.326;2.104;2022-07-06T06:57:57;11.20;;;5.68;;
61336;SDS011;47212;41.326;2.104;2022-07-06T07:03:12;8.32;;;3.92;;
61336;SDS011;47212;41.326;2.104;2022-07-06T07:08:28;13.23;;;5.55;;
61336;SDS011;47212;41.326;2.104;2022-07-06T07:13:36;9.60;;;4.43;;
61336;SDS011;47212;41.326;2.104;2022-07-06T07:18:46;10.43;;;4.88;;
61336;SDS011;47212;41.326;2.104;2022-07-06T07:24:05;9.68;;;4.10;;
61336;SDS011;47212;41.326;2.104;2022-07-06T07:29:16;6.75;;;3.72;;
61336;SDS011;47212;41.326;2.104;2022-07-06T07:34:19;13.68;;;4.47;;
61336;SDS011;47212;41.326;2.104;2022-07-06T07:39:37;7.45;;;3.65;;
61336;SDS011;47212;41.326;2.104;2022-07-06T07:44:56;7.93;;;4.57;;
61336;SDS011;47212;41.326;2.104;2022-07-06T07:50:08;11.40;;;4.57;;
61336;SDS011;47212;41.326;2.104;2022-07-06T07:55:22;13.38;;;5.63;;
61336;SDS011;47212;41.326;2.104;2022-07-06T08:06:05;14.00;;;5.45;;
61336;SDS011;47212;41.326;2.104;2022-07-06T08:11:11;11.32;;;5.50;;
61336;SDS011;47212;41.326;2.104;2022-07-06T08:16:23;12.32;;;5.72;;
61336;SDS011;47212;41.326;2.104;2022-07-06T08:21:28;9.88;;;5.38;;
61336;SDS011;47212;41.326;2.104;2022-07-06T08:26:30;8.80;;;4.47;;
61336;SDS011;47212;41.326;2.104;2022-07-06T08:31:41;7.53;;;3.80;;
61336;SDS011;47212;41.326;2.104;2022-07-06T08:37:09;8.95;;;4.65;;
61336;SDS011;47212;41.326;2.104;2022-07-06T08:42:27;11.88;;;5.35;;
61336;SDS011;47212;41.326;2.104;2022-07-06T08:47:37;9.63;;;4.63;;
61336;SDS011;47212;41.326;2.104;2022-07-06T08:53:03;13.45;;;5.30;;
61336;SDS011;47212;41.326;2.104;2022-07-06T08:58:27;7.68;;;4.03;;
61336;SDS011;47212;41.326;2.104;2022-07-06T09:03:32;8.35;;;4.07;;
61336;SDS011;47212;41.326;2.104;2022-07-06T09:08:50;8.82;;;4.47;;
61336;SDS011;47212;41.326;2.104;2022-07-06T09:14:07;12.00;;;4.07;;
61336;SDS011;47212;41.326;2.104;2022-07-06T09:19:51;10.80;;;3.67;;
61336;SDS011;47212;41.326;2.104;2022-07-06T09:25:21;9.73;;;3.50;;
61336;SDS011;47212;41.326;2.104;2022-07-06T09:30:29;6.10;;;2.35;;
61336;SDS011;47212;41.326;2.104;2022-07-06T09:35:41;6.20;;;2.60;;
61336;SDS011;47212;41.326;2.104;2022-07-06T09:46:23;9.15;;;2.97;;
61336;SDS011;47212;41.326;2.104;2022-07-06T09:51:45;7.30;;;2.75;;
61336;SDS011;47212;41.326;2.104;2022-07-06T09:57:01;8.75;;;3.10;;
61336;SDS011;47212;41.326;2.104;2022-07-06T10:02:18;8.60;;;2.58;;
61336;SDS011;47212;41.326;2.104;2022-07-06T10:07:33;8.38;;;2.70;;
61336;SDS011;47212;41.326;2.104;2022-07-06T10:12:46;7.47;;;2.97;;
61336;SDS011;47212;41.326;2.104;2022-07-06T10:18:09;9.00;;;2.58;;
61336;SDS011;47212;41.326;2.104;2022-07-06T10:23:26;4.05;;;2.42;;
61336;SDS011;47212;41.326;2.104;2022-07-06T10:28:34;6.22;;;2.50;;
61336;SDS011;47212;41.326;2.104;2022-07-06T10:33:41;5.78;;;2.35;;
61336;SDS011;47212;41.326;2.104;2022-07-06T10:38:50;3.13;;;2.08;;
61336;SDS011;47212;41.326;2.104;2022-07-06T10:44:20;10.43;;;2.50;;
61336;SDS011;47212;41.326;2.104;2022-07-06T10:49:27;5.07;;;2.30;;
61336;SDS011;47212;41.326;2.104;2022-07-06T10:54:55;5.05;;;2.38;;
61336;SDS011;47212;41.326;2.104;2022-07-06T11:00:05;8.88;;;2.47;;
61336;SDS011;47212;41.326;2.104;2022-07-06T11:11:22;5.75;;;2.10;;
61336;SDS011;47212;41.326;2.104;2022-07-06T11:16:59;4.77;;;1.70;;
61336;SDS011;47212;41.326;2.104;2022-07-06T11:22:11;6.70;;;2.22;;
61336;SDS011;47212;41.326;2.104;2022-07-06T11:27:17;4.45;;;2.00;;
61336;SDS011;47212;41.326;2.104;2022-07-06T11:32:29;4.22;;;2.03;;
61336;SDS011;47212;41.326;2.104;2022-07-06T11:37:47;5.68;;;2.10;;
61336;SDS011;47212;41.326;2.104;2022-07-06T11:42:55;4.25;;;2.33;;
61336;SDS011;47212;41.326;2.104;2022-07-06T11:48:11;5.07;;;2.47;;
61336;SDS011;47212;41.326;2.104;2022-07-06T11:53:21;4.53;;;2.58;;
61336;SDS011;47212;41.326;2.104;2022-07-06T11:58:30;4.68;;;2.35;;
61336;SDS011;47212;41.326;2.104;2022-07-06T12:03:35;8.82;;;2.67;;
61336;SDS011;47212;41.326;2.104;2022-07-06T12:08:48;2.50;;;1.80;;
61336;SDS011;47212;41.326;2.104;2022-07-06T12:14:16;3.10;;;2.17;;
61336;SDS011;47212;41.326;2.104;2022-07-06T12:19:23;6.60;;;2.67;;
61336;SDS011;47212;41.326;2.104;2022-07-06T12:24:27;4.40;;;2.53;;
61336;SDS011;47212;41.326;2.104;2022-07-06T12:29:53;5.50;;;2.85;;
61336;SDS011;47212;41.326;2.104;2022-07-06T12:35:25;5.20;;;2.60;;
61336;SDS011;47212;41.326;2.104;2022-07-06T12:40:31;5.85;;;2.67;;
61336;SDS011;47212;41.326;2.104;2022-07-06T12:45:36;12.15;;;3.75;;
61336;SDS011;47212;41.326;2.104;2022-07-06T12:50:50;15.65;;;3.70;;
61336;SDS011;47212;41.326;2.104;2022-07-06T12:56:13;8.68;;;3.20;;
61336;SDS011;47212;41.326;2.104;2022-07-06T13:01:22;7.63;;;3.22;;
61336;SDS011;47212;41.326;2.104;2022-07-06T13:06:37;6.15;;;3.80;;
61336;SDS011;47212;41.326;2.104;2022-07-06T13:11:48;6.77;;;2.83;;
61336;SDS011;47212;41.326;2.104;2022-07-06T13:16:53;11.07;;;3.70;;
61336;SDS011;47212;41.326;2.104;2022-07-06T13:22:09;6.97;;;3.55;;
61336;SDS011;47212;41.326;2.104;2022-07-06T13:27:20;6.93;;;2.78;;
61336;SDS011;47212;41.326;2.104;2022-07-06T13:32:42;6.28;;;2.63;;
61336;SDS011;47212;41.326;2.104;2022-07-06T13:37:50;4.38;;;2.45;;
61336;SDS011;47212;41.326;2.104;2022-07-06T13:42:52;4.93;;;2.03;;
61336;SDS011;47212;41.326;2.104;2022-07-06T13:47:56;5.38;;;2.80;;
61336;SDS011;47212;41.326;2.104;2022-07-06T13:52:59;4.95;;;2.83;;
61336;SDS011;47212;41.326;2.104;2022-07-06T13:58:01;10.02;;;4.50;;
61336;SDS011;47212;41.326;2.104;2022-07-06T14:03:05;5.63;;;3.38;;
61336;SDS011;47212;41.326;2.104;2022-07-06T14:08:07;7.03;;;2.60;;
61336;SDS011;47212;41.326;2.104;2022-07-06T14:13:09;7.93;;;3.60;;
61336;SDS011;47212;41.326;2.104;2022-07-06T14:18:19;5.30;;;2.92;;
61336;SDS011;47212;41.326;2.104;2022-07-06T14:23:24;10.02;;;3.83;;
61336;SDS011;47212;41.326;2.104;2022-07-06T14:28:29;8.95;;;4.30;;
61336;SDS011;47212;41.326;2.104;2022-07-06T14:33:35;12.10;;;3.80;;
61336;SDS011;47212;41.326;2.104;2022-07-06T14:38:52;7.40;;;3.33;;
61336;SDS011;47212;41.326;2.104;2022-07-06T14:43:58;9.60;;;3.33;;
61336;SDS011;47212;41.326;2.104;2022-07-06T14:49:11;7.07;;;3.15;;
61336;SDS011;47212;41.326;2.104;2022-07-06T14:54:33;7.00;;;3.10;;
61336;SDS011;47212;41.326;2.104;2022-07-06T14:59:44;6.07;;;3.00;;
61336;SDS011;47212;41.326;2.104;2022-07-06T15:04:52;6.45;;;3.05;;
61336;SDS011;47212;41.326;2.104;2022-07-06T15:09:56;6.90;;;3.20;;
61336;SDS011;47212;41.326;2.104;2022-07-06T15:15:03;7.22;;;2.92;;
61336;SDS011;47212;41.326;2.104;2022-07-06T15:20:41;6.32;;;3.30;;
61336;SDS011;47212;41.326;2.104;2022-07-06T15:25:53;8.48;;;3.00;;
61336;SDS011;47212;41.326;2.104;2022-07-06T15:31:08;7.50;;;2.97;;
61336;SDS011;47212;41.326;2.104;2022-07-06T15:36:27;10.60;;;3.00;;
61336;SDS011;47212;41.326;2.104;2022-07-06T15:41:36;6.53;;;2.80;;
61336;SDS011;47212;41.326;2.104;2022-07-06T15:46:44;9.43;;;3.03;;
61336;SDS011;47212;41.326;2.104;2022-07-06T15:52:11;7.80;;;2.97;;
61336;SDS011;47212;41.326;2.104;2022-07-06T15:57:21;7.60;;;3.08;;
61336;SDS011;47212;41.326;2.104;2022-07-06T16:02:28;4.68;;;2.78;;
61336;SDS011;47212;41.326;2.104;2022-07-06T16:09:02;5.88;;;2.97;;
61336;SDS011;47212;41.326;2.104;2022-07-06T16:15:05;9.63;;;3.10;;
61336;SDS011;47212;41.326;2.104;2022-07-06T16:20:35;6.22;;;2.67;;
61336;SDS011;47212;41.326;2.104;2022-07-06T16:26:39;4.20;;;2.50;;
61336;SDS011;47212;41.326;2.104;2022-07-06T16:32:52;4.93;;;2.53;;
61336;SDS011;47212;41.326;2.104;2022-07-06T16:38:03;4.60;;;2.50;;
61336;SDS011;47212;41.326;2.104;2022-07-06T16:43:14;3.88;;;2.25;;
61336;SDS011;47212;41.326;2.104;2022-07-06T16:48:19;8.75;;;2.58;;
61336;SDS011;47212;41.326;2.104;2022-07-06T16:53:25;6.13;;;3.10;;
61336;SDS011;47212;41.326;2.104;2022-07-06T16:58:34;7.32;;;3.30;;
61336;SDS011;47212;41.326;2.104;2022-07-06T17:03:42;6.90;;;3.38;;
61336;SDS011;47212;41.326;2.104;2022-07-06T17:08:44;6.50;;;2.92;;
61336;SDS011;47212;41.326;2.104;2022-07-06T17:13:47;7.68;;;3.03;;
61336;SDS011;47212;41.326;2.104;2022-07-06T17:18:52;6.72;;;3.22;;
61336;SDS011;47212;41.326;2.104;2022-07-06T17:23:56;7.25;;;2.90;;
61336;SDS011;47212;41.326;2.104;2022-07-06T17:29:02;5.35;;;2.58;;
61336;SDS011;47212;41.326;2.104;2022-07-06T17:34:04;8.95;;;3.22;;
61336;SDS011;47212;41.326;2.104;2022-07-06T17:39:09;4.63;;;2.50;;
61336;SDS011;47212;41.326;2.104;2022-07-06T17:44:15;7.05;;;3.17;;
61336;SDS011;47212;41.326;2.104;2022-07-06T17:50:19;8.73;;;2.70;;
61336;SDS011;47212;41.326;2.104;2022-07-06T17:56:27;10.05;;;2.78;;
61336;SDS011;47212;41.326;2.104;2022-07-06T18:02:35;9.27;;;2.47;;
61336;SDS011;47212;41.326;2.104;2022-07-06T18:07:42;8.20;;;2.40;;
61336;SDS011;47212;41.326;2.104;2022-07-06T18:12:55;8.90;;;1.98;;
61336;SDS011;47212;41.326;2.104;2022-07-06T18:18:14;4.07;;;1.80;;
61336;SDS011;47212;41.326;2.104;2022-07-06T18:23:28;6.35;;;1.92;;
61336;SDS011;47212;41.326;2.104;2022-07-06T18:28:41;7.22;;;2.13;;
61336;SDS011;47212;41.326;2.104;2022-07-06T18:33:45;3.97;;;1.73;;
61336;SDS011;47212;41.326;2.104;2022-07-06T18:39:13;4.28;;;1.98;;
61336;SDS011;47212;41.326;2.104;2022-07-06T18:44:21;8.35;;;1.92;;
61336;SDS011;47212;41.326;2.104;2022-07-06T18:50:05;6.10;;;2.10;;
61336;SDS011;47212;41.326;2.104;2022-07-06T18:55:08;5.85;;;2.33;;
61336;SDS011;47212;41.326;2.104;2022-07-06T19:00:10;6.20;;;1.98;;
61336;SDS011;47212;41.326;2.104;2022-07-06T19:05:34;11.65;;;2.35;;
61336;SDS011;47212;41.326;2.104;2022-07-06T19:10:48;5.80;;;2.40;;
61336;SDS011;47212;41.326;2.104;2022-07-06T19:15:53;9.05;;;2.10;;
61336;SDS011;47212;41.326;2.104;2022-07-06T19:21:03;6.20;;;2.20;;
61336;SDS011;47212;41.326;2.104;2022-07-06T19:26:14;5.25;;;2.47;;
61336;SDS011;47212;41.326;2.104;2022-07-06T19:31:16;5.80;;;1.90;;
61336;SDS011;47212;41.326;2.104;2022-07-06T19:36:22;3.65;;;1.80;;
61336;SDS011;47212;41.326;2.104;2022-07-06T19:41:28;5.53;;;1.77;;
61336;SDS011;47212;41.326;2.104;2022-07-06T19:46:31;8.48;;;2.15;;
61336;SDS011;47212;41.326;2.104;2022-07-06T19:51:34;7.38;;;1.98;;
61336;SDS011;47212;41.326;2.104;2022-07-06T19:56:41;4.13;;;2.13;;
61336;SDS011;47212;41.326;2.104;2022-07-06T20:01:53;5.45;;;2.28;;
61336;SDS011;47212;41.326;2.104;2022-07-06T20:07:02;7.20;;;2.63;;
61336;SDS011;47212;41.326;2.104;2022-07-06T20:12:12;8.77;;;2.55;;
61336;SDS011;47212;41.326;2.104;2022-07-06T20:17:15;5.25;;;2.08;;
61336;SDS011;47212;41.326;2.104;2022-07-06T20:22:17;6.43;;;2.60;;
61336;SDS011;47212;41.326;2.104;2022-07-06T20:27:21;7.75;;;2.40;;
61336;SDS011;47212;41.326;2.104;2022-07-06T20:32:24;5.25;;;2.10;;
61336;SDS011;47212;41.326;2.104;2022-07-06T20:37:26;6.57;;;2.85;;
61336;SDS011;47212;41.326;2.104;2022-07-06T20:42:28;10.27;;;4.63;;
61336;SDS011;47212;41.326;2.104;2022-07-06T20:47:30;7.20;;;2.65;;
61336;SDS011;47212;41.326;2.104;2022-07-06T20:52:34;7.00;;;2.38;;
61336;SDS011;47212;41.326;2.104;2022-07-06T20:57:38;8.20;;;2.30;;
61336;SDS011;47212;41.326;2.104;2022-07-06T21:02:56;5.15;;;2.28;;
61336;SDS011;47212;41.326;2.104;2022-07-06T21:08:02;6.75;;;2.42;;
61336;SDS011;47212;41.326;2.104;2022-07-06T21:13:12;5.57;;;2.50;;
61336;SDS011;47212;41.326;2.104;2022-07-06T21:18:15;3.80;;;1.98;;
61336;SDS011;47212;41.326;2.104;2022-07-06T21:23:22;4.63;;;2.03;;
61336;SDS011;47212;41.326;2.104;2022-07-06T21:28:32;8.13;;;2.40;;
61336;SDS011;47212;41.326;2.104;2022-07-06T21:33:40;5.70;;;1.90;;
61336;SDS011;47212;41.326;2.104;2022-07-06T21:38:49;8.48;;;2.20;;
61336;SDS011;47212;41.326;2.104;2022-07-06T21:43:58;6.75;;;2.00;;
61336;SDS011;47212;41.326;2.104;2022-07-06T21:49:02;5.45;;;1.95;;
61336;SDS011;47212;41.326;2.104;2022-07-06T21:54:31;6.45;;;2.75;;
61336;SDS011;47212;41.326;2.104;2022-07-06T21:59:35;5.13;;;2.40;;
61336;SDS011;47212;41.326;2.104;2022-07-06T22:04:37;5.03;;;1.98;;
61336;SDS011;47212;41.326;2.104;2022-07-06T22:09:41;4.35;;;1.75;;
61336;SDS011;47212;41.326;2.104;2022-07-06T22:14:45;5.72;;;2.17;;
61336;SDS011;47212;41.326;2.104;2022-07-06T22:19:56;2.85;;;1.40;;
61336;SDS011;47212;41.326;2.104;2022-07-06T22:25:13;4.43;;;1.80;;
61336;SDS011;47212;41.326;2.104;2022-07-06T22:30:24;6.43;;;2.15;;
61336;SDS011;47212;41.326;2.104;2022-07-06T22:35:31;5.07;;;1.65;;
61336;SDS011;47212;41.326;2.104;2022-07-06T22:40:38;6.28;;;1.55;;
61336;SDS011;47212;41.326;2.104;2022-07-06T22:46:18;7.77;;;1.60;;
61336;SDS011;47212;41.326;2.104;2022-07-06T22:51:26;4.68;;;2.22;;
61336;SDS011;47212;41.326;2.104;2022-07-06T22:56:36;6.78;;;2.05;;
61336;SDS011;47212;41.326;2.104;2022-07-06T23:01:43;6.88;;;2.10;;
61336;SDS011;47212;41.326;2.104;2022-07-06T23:06:46;4.60;;;1.80;;
61336;SDS011;47212;41.326;2.104;2022-07-06T23:11:53;7.38;;;3.83;;
61336;SDS011;47212;41.326;2.104;2022-07-06T23:16:56;5.72;;;2.28;;
61336;SDS011;47212;41.326;2.104;2022-07-06T23:22:06;6.05;;;2.10;;
61336;SDS011;47212;41.326;2.104;2022-07-06T23:27:08;8.25;;;2.10;;
61336;SDS011;47212;41.326;2.104;2022-07-06T23:32:17;3.20;;;1.63;;
61336;SDS011;47212;41.326;2.104;2022-07-06T23:37:19;6.72;;;3.67;;
61336;SDS011;47212;41.326;2.104;2022-07-06T23:42:21;6.50;;;2.53;;
61336;SDS011;47212;41.326;2.104;2022-07-06T23:47:25;4.32;;;1.88;;
61336;SDS011;47212;41.326;2.104;2022-07-06T23:52:28;4.25;;;2.00;;
61336;SDS011;47212;41.326;2.104;2022-07-06T23:57:30;4.60;;;1.95;;
